createdAt,value
2023-05-21T00:00:29.795Z,3.80
2023-05-21T00:02:59.105Z,3.30
2023-05-21T00:05:26.472Z,4.80
2023-05-21T00:07:54.821Z,4.70
2023-05-21T00:10:22.199Z,4.03
2023-05-21T00:12:49.140Z,3.67
2023-05-21T00:15:16.335Z,4.53
2023-05-21T00:17:44.589Z,3.27
2023-05-21T00:20:13.038Z,4.00
2023-05-21T00:22:42.246Z,3.57
2023-05-21T00:25:10.886Z,5.57
2023-05-21T00:27:38.125Z,3.87
2023-05-21T00:30:07.233Z,3.67
2023-05-21T00:32:34.264Z,4.30
2023-05-21T00:35:01.368Z,4.13
2023-05-21T00:37:32.897Z,4.43
2023-05-21T00:40:05.600Z,3.70
2023-05-21T00:42:32.667Z,3.83
2023-05-21T00:45:00.616Z,3.70
2023-05-21T00:47:29.736Z,4.00
2023-05-21T00:49:56.998Z,4.77
2023-05-21T00:52:26.785Z,3.93
2023-05-21T00:54:55.128Z,4.27
2023-05-21T00:57:33.424Z,5.60
2023-05-21T01:00:00.962Z,4.63
2023-05-21T01:02:28.265Z,4.40
2023-05-21T01:04:56.222Z,4.37
2023-05-21T01:07:23.394Z,5.93
2023-05-21T01:09:50.784Z,5.70
2023-05-21T01:12:20.650Z,6.70
2023-05-21T01:14:49.815Z,10.37
2023-05-21T01:17:17.048Z,11.23
2023-05-21T01:19:44.901Z,11.93
2023-05-21T01:22:14.321Z,10.07
2023-05-21T01:24:41.766Z,12.23
2023-05-21T01:27:10.561Z,9.50
2023-05-21T01:29:37.660Z,8.70
2023-05-21T01:32:33.706Z,7.63
2023-05-21T01:35:25.077Z,8.40
2023-05-21T01:38:06.515Z,7.17
2023-05-21T01:40:58.887Z,8.27
2023-05-21T01:43:31.498Z,7.17
2023-05-21T01:46:00.319Z,6.97
2023-05-21T01:48:30.173Z,6.40
2023-05-21T01:51:02.360Z,5.53
2023-05-21T01:53:29.669Z,7.17
2023-05-21T01:55:56.816Z,4.90
2023-05-21T01:58:24.382Z,4.80
2023-05-21T02:00:51.878Z,5.67
2023-05-21T02:03:20.820Z,3.97
2023-05-21T02:05:48.104Z,7.90
2023-05-21T02:08:15.312Z,5.67
2023-05-21T02:10:42.413Z,4.33
2023-05-21T02:13:09.694Z,3.93
2023-05-21T02:15:36.798Z,4.00
2023-05-21T02:18:04.421Z,3.90
2023-05-21T02:20:31.791Z,4.60
2023-05-21T02:22:58.924Z,5.07
2023-05-21T02:25:26.074Z,4.93
2023-05-21T02:27:54.115Z,4.73
2023-05-21T02:30:21.400Z,4.40
2023-05-21T02:32:49.971Z,4.93
2023-05-21T02:35:17.134Z,3.43
2023-05-21T02:37:44.613Z,4.57
2023-05-21T02:40:12.701Z,4.67
2023-05-21T02:42:42.159Z,3.87
2023-05-21T02:45:13.425Z,4.37
2023-05-21T02:47:43.142Z,4.13
2023-05-21T02:50:10.596Z,5.03
2023-05-21T02:52:44.623Z,3.60
2023-05-21T02:55:11.733Z,4.20
2023-05-21T02:57:38.766Z,3.77
2023-05-21T03:00:08.091Z,4.80
2023-05-21T03:02:35.869Z,8.50
2023-05-21T03:05:03.022Z,4.93
2023-05-21T03:07:30.085Z,4.07
2023-05-21T03:09:57.046Z,5.73
2023-05-21T03:12:24.032Z,4.27
2023-05-21T03:14:51.490Z,3.80
2023-05-21T03:17:20.671Z,3.77
2023-05-21T03:19:49.115Z,4.10
2023-05-21T03:22:16.400Z,3.97
2023-05-21T03:24:45.126Z,4.27
2023-05-21T03:27:12.719Z,6.73
2023-05-21T03:29:40.222Z,3.70
2023-05-21T03:32:08.435Z,4.97
2023-05-21T03:34:35.945Z,3.93
2023-05-21T03:37:03.601Z,3.83
2023-05-21T03:39:31.921Z,5.40
2023-05-21T03:41:59.786Z,4.27
2023-05-21T03:44:41.967Z,4.47
2023-05-21T03:47:25.007Z,5.73
2023-05-21T03:49:53.062Z,4.30
2023-05-21T03:52:20.101Z,5.43
2023-05-21T03:54:47.176Z,4.13
2023-05-21T03:57:14.257Z,4.93
2023-05-21T03:59:41.328Z,4.10
2023-05-21T04:02:08.351Z,4.40
2023-05-21T04:04:35.450Z,6.43
2023-05-21T04:07:04.632Z,4.97
2023-05-21T04:09:31.670Z,4.97
2023-05-21T04:11:58.652Z,4.43
2023-05-21T04:14:25.850Z,5.43
2023-05-21T04:16:53.037Z,5.13
2023-05-21T04:19:21.445Z,4.27
2023-05-21T04:21:49.371Z,4.33
2023-05-21T04:24:16.636Z,4.00
2023-05-21T04:27:01.260Z,3.70
2023-05-21T04:29:30.380Z,3.87
2023-05-21T04:31:57.527Z,4.73
2023-05-21T04:34:24.863Z,4.53
2023-05-21T04:36:52.073Z,7.40
2023-05-21T04:39:19.095Z,4.23
2023-05-21T04:41:46.175Z,4.67
2023-05-21T04:44:17.345Z,4.70
2023-05-21T04:46:46.252Z,4.10
2023-05-21T04:49:13.673Z,5.57
2023-05-21T04:51:41.562Z,4.73
2023-05-21T04:54:08.585Z,5.33
2023-05-21T04:56:36.030Z,3.87
2023-05-21T04:59:05.592Z,4.00
2023-05-21T05:01:35.179Z,4.80
2023-05-21T05:04:02.414Z,5.07
2023-05-21T05:06:29.980Z,4.60
2023-05-21T05:08:57.360Z,5.40
2023-05-21T05:11:26.615Z,4.57
2023-05-21T05:13:53.976Z,4.60
2023-05-21T05:16:25.492Z,5.70
2023-05-21T05:18:53.390Z,5.43
2023-05-21T05:21:24.011Z,4.90
2023-05-21T05:23:51.380Z,4.60
2023-05-21T05:26:20.278Z,4.72
2023-05-21T05:28:47.443Z,7.40
2023-05-21T05:31:14.699Z,5.13
2023-05-21T05:33:43.653Z,6.00
2023-05-21T05:36:11.796Z,4.78
2023-05-21T05:38:39.018Z,5.33
2023-05-21T05:41:06.329Z,4.70
2023-05-21T05:43:33.490Z,7.35
2023-05-21T05:46:01.288Z,4.80
2023-05-21T05:48:28.912Z,5.13
2023-05-21T05:50:57.646Z,4.95
2023-05-21T05:53:26.420Z,4.95
2023-05-21T05:55:54.337Z,4.88
2023-05-21T05:58:21.366Z,5.35
2023-05-21T06:00:56.693Z,6.75
2023-05-21T06:03:25.025Z,5.18
2023-05-21T06:05:53.428Z,5.40
2023-05-21T06:08:20.824Z,5.80
2023-05-21T06:10:47.834Z,5.00
2023-05-21T06:13:15.529Z,5.20
2023-05-21T06:15:45.764Z,7.40
2023-05-21T06:18:12.868Z,5.50
2023-05-21T06:20:39.986Z,6.35
2023-05-21T06:23:08.875Z,6.95
2023-05-21T06:25:36.831Z,5.72
2023-05-21T06:28:04.796Z,5.75
2023-05-21T06:30:33.409Z,7.38
2023-05-21T06:33:00.987Z,5.60
2023-05-21T06:35:27.998Z,5.75
2023-05-21T06:37:55.374Z,6.07
2023-05-21T06:40:22.515Z,7.15
2023-05-21T06:42:53.064Z,6.35
2023-05-21T06:45:39.519Z,6.93
2023-05-21T06:48:20.493Z,5.43
2023-05-21T06:50:48.927Z,6.43
2023-05-21T06:53:16.493Z,7.15
2023-05-21T06:55:45.604Z,6.35
2023-05-21T06:58:16.164Z,6.35
2023-05-21T07:00:43.191Z,6.72
2023-05-21T07:03:11.041Z,6.50
2023-05-21T07:05:38.441Z,7.57
2023-05-21T07:08:06.623Z,6.28
2023-05-21T07:10:34.800Z,5.53
2023-05-21T07:13:02.631Z,5.85
2023-05-21T07:15:30.240Z,5.95
2023-05-21T07:17:57.218Z,5.93
2023-05-21T07:20:24.814Z,5.90
2023-05-21T07:22:54.948Z,5.70
2023-05-21T07:25:22.050Z,5.53
2023-05-21T07:27:49.817Z,6.20
2023-05-21T07:30:17.302Z,5.90
2023-05-21T07:32:44.478Z,6.05
2023-05-21T07:35:11.549Z,5.57
2023-05-21T07:37:38.615Z,6.03
2023-05-21T07:40:07.776Z,7.13
2023-05-21T07:42:35.766Z,5.82
2023-05-21T07:45:05.255Z,5.68
2023-05-21T07:47:36.850Z,5.85
2023-05-21T07:50:05.990Z,6.82
2023-05-21T07:52:33.046Z,6.82
2023-05-21T07:55:02.854Z,5.78
2023-05-21T07:57:33.356Z,6.45
2023-05-21T08:00:08.333Z,6.30
2023-05-21T08:02:42.606Z,6.60
2023-05-21T08:05:13.149Z,6.10
2023-05-21T08:07:40.497Z,6.03
2023-05-21T08:10:08.980Z,6.30
2023-05-21T08:12:36.132Z,6.57
2023-05-21T08:15:05.661Z,5.95
2023-05-21T08:17:35.977Z,6.43
2023-05-21T08:20:04.653Z,6.40
2023-05-21T08:22:32.519Z,8.02
2023-05-21T08:25:00.243Z,7.32
2023-05-21T08:27:27.173Z,6.22
2023-05-21T08:29:54.270Z,6.78
2023-05-21T08:32:21.221Z,10.35
2023-05-21T08:34:48.283Z,8.00
2023-05-21T08:37:29.855Z,7.82
2023-05-21T08:40:07.240Z,6.75
2023-05-21T08:42:49.622Z,7.18
2023-05-21T08:45:22.968Z,7.60
2023-05-21T08:47:57.641Z,6.60
2023-05-21T08:50:29.858Z,6.82
2023-05-21T08:53:04.051Z,7.72
2023-05-21T08:55:38.895Z,7.57
2023-05-21T08:58:06.689Z,10.07
2023-05-21T09:00:33.926Z,7.53
2023-05-21T09:03:02.823Z,8.77
2023-05-21T09:05:34.918Z,7.72
2023-05-21T09:08:19.699Z,6.53
2023-05-21T09:11:03.156Z,6.70
2023-05-21T09:13:46.289Z,6.90
2023-05-21T09:16:21.258Z,7.88
2023-05-21T09:18:49.596Z,8.07
2023-05-21T09:21:31.972Z,8.30
2023-05-21T09:24:25.061Z,6.93
2023-05-21T09:26:52.904Z,7.30
2023-05-21T09:29:20.071Z,8.55
2023-05-21T09:31:47.809Z,9.10
2023-05-21T09:34:15.887Z,7.63
2023-05-21T09:36:45.961Z,7.40
2023-05-21T09:39:28.672Z,7.88
2023-05-21T09:41:59.518Z,9.57
2023-05-21T09:44:27.431Z,7.10
2023-05-21T09:46:59.607Z,10.35
2023-05-21T09:49:27.938Z,7.57
2023-05-21T09:52:00.344Z,7.97
2023-05-21T09:54:33.851Z,8.77
2023-05-21T09:57:04.364Z,7.70
2023-05-21T09:59:41.216Z,7.55
2023-05-21T10:02:21.023Z,8.38
2023-05-21T10:04:54.286Z,6.95
2023-05-21T10:07:26.469Z,7.05
2023-05-21T10:09:59.063Z,7.53
2023-05-21T10:12:30.255Z,6.75
2023-05-21T10:15:04.170Z,7.32
2023-05-21T10:17:31.534Z,8.43
2023-05-21T10:20:01.505Z,10.05
2023-05-21T10:22:29.320Z,9.18
2023-05-21T10:24:58.771Z,8.52
2023-05-21T10:27:31.340Z,8.05
2023-05-21T10:30:00.511Z,7.82
2023-05-21T10:32:28.253Z,7.45
2023-05-21T10:34:58.608Z,8.60
2023-05-21T10:37:27.599Z,8.35
2023-05-21T10:39:56.465Z,7.93
2023-05-21T10:42:32.520Z,8.30
2023-05-21T10:45:11.373Z,13.48
2023-05-21T10:48:00.329Z,8.50
2023-05-21T10:51:10.411Z,8.13
2023-05-21T10:54:22.495Z,7.93
2023-05-21T10:57:24.055Z,8.55
2023-05-21T10:59:52.036Z,9.98
2023-05-21T11:02:21.029Z,7.57
2023-05-21T11:04:59.101Z,7.43
2023-05-21T11:07:57.891Z,8.32
2023-05-21T11:10:32.822Z,8.75
2023-05-21T11:13:14.748Z,10.13
2023-05-21T11:16:01.381Z,9.98
2023-05-21T11:18:34.163Z,9.57
2023-05-21T11:21:04.600Z,9.35
2023-05-21T11:23:55.462Z,9.15
2023-05-21T11:26:30.024Z,10.00
2023-05-21T11:29:06.537Z,10.00
2023-05-21T11:31:38.858Z,14.00
2023-05-21T11:34:15.641Z,10.55
2023-05-21T11:36:47.087Z,9.70
2023-05-21T11:39:22.214Z,10.73
2023-05-21T11:41:52.328Z,10.73
2023-05-21T11:44:37.637Z,11.77
2023-05-21T11:47:06.111Z,9.45
2023-05-21T11:49:34.400Z,11.32
2023-05-21T11:52:03.262Z,9.27
2023-05-21T11:54:37.329Z,9.73
2023-05-21T11:57:08.901Z,10.13
2023-05-21T11:59:37.028Z,10.15
2023-05-21T12:02:05.245Z,10.98
2023-05-21T12:04:36.520Z,10.77
2023-05-21T12:07:07.818Z,11.15
2023-05-21T12:09:49.464Z,10.25
2023-05-21T12:12:19.189Z,10.55
2023-05-21T12:14:51.925Z,10.70
2023-05-21T12:17:24.236Z,10.45
2023-05-21T12:19:55.549Z,11.10
2023-05-21T12:22:24.823Z,10.50
2023-05-21T12:24:53.821Z,11.00
2023-05-21T12:27:22.317Z,9.93
2023-05-21T12:29:53.756Z,11.30
2023-05-21T12:32:22.129Z,12.18
2023-05-21T12:34:52.719Z,11.40
2023-05-21T12:37:26.496Z,10.57
2023-05-21T12:39:55.886Z,9.68
2023-05-21T12:42:30.950Z,10.15
2023-05-21T12:44:58.594Z,9.15
2023-05-21T12:47:28.173Z,10.70
2023-05-21T12:50:00.863Z,10.35
2023-05-21T12:52:29.079Z,10.05
2023-05-21T12:54:57.513Z,9.40
2023-05-21T12:57:35.894Z,9.70
2023-05-21T13:00:06.786Z,10.10
2023-05-21T13:02:44.749Z,9.88
2023-05-21T13:05:18.445Z,9.15
2023-05-21T13:07:51.558Z,9.10
2023-05-21T13:10:18.889Z,10.25
2023-05-21T13:12:46.361Z,11.05
2023-05-21T13:15:14.443Z,11.40
2023-05-21T13:17:41.661Z,9.13
2023-05-21T13:20:21.708Z,8.90
2023-05-21T13:22:51.858Z,9.75
2023-05-21T13:25:24.580Z,10.63
2023-05-21T13:27:53.703Z,11.75
2023-05-21T13:30:22.502Z,10.85
2023-05-21T13:32:49.723Z,9.52
2023-05-21T13:35:17.260Z,10.07
2023-05-21T13:37:45.148Z,10.43
2023-05-21T13:40:15.640Z,9.65
2023-05-21T13:42:45.389Z,10.48
2023-05-21T13:45:16.136Z,9.52
2023-05-21T13:47:45.009Z,8.95
2023-05-21T13:50:12.759Z,10.85
2023-05-21T13:52:40.870Z,9.15
2023-05-21T13:55:08.885Z,9.80
2023-05-21T13:57:36.053Z,11.20
2023-05-21T14:00:04.949Z,9.60
2023-05-21T14:02:34.921Z,9.95
2023-05-21T14:05:02.149Z,11.70
2023-05-21T14:07:30.034Z,9.38
2023-05-21T14:09:57.053Z,9.95
2023-05-21T14:12:24.045Z,8.52
2023-05-21T14:14:51.653Z,8.40
2023-05-21T14:17:18.704Z,9.25
2023-05-21T14:19:45.794Z,8.50
2023-05-21T14:22:13.194Z,9.13
2023-05-21T14:24:40.232Z,9.27
2023-05-21T14:27:07.331Z,9.85
2023-05-21T14:29:34.366Z,10.05
2023-05-21T14:32:01.391Z,8.63
2023-05-21T14:34:28.477Z,10.73
2023-05-21T14:36:55.469Z,10.07
2023-05-21T14:39:22.605Z,10.02
2023-05-21T14:41:50.217Z,9.02
2023-05-21T14:44:17.380Z,10.65
2023-05-21T14:46:44.436Z,8.77
2023-05-21T14:49:12.247Z,9.75
2023-05-21T14:51:40.133Z,8.75
2023-05-21T14:54:07.135Z,7.97
2023-05-21T14:56:34.082Z,7.30
2023-05-21T14:59:01.137Z,8.60
2023-05-21T15:01:28.311Z,9.25
2023-05-21T15:03:56.940Z,10.25
2023-05-21T15:06:24.420Z,10.20
2023-05-21T15:08:51.424Z,9.05
2023-05-21T15:11:18.498Z,8.30
2023-05-21T15:13:45.495Z,9.75
2023-05-21T15:16:12.461Z,8.00
2023-05-21T15:18:39.437Z,9.10
2023-05-21T15:21:06.454Z,9.23
2023-05-21T15:23:33.514Z,8.27
2023-05-21T15:26:00.537Z,9.55
2023-05-21T15:28:27.698Z,8.50
2023-05-21T15:30:54.635Z,8.82
2023-05-21T15:33:21.762Z,8.15
2023-05-21T15:35:48.942Z,9.27
2023-05-21T15:38:16.053Z,9.77
2023-05-21T15:40:43.258Z,9.32
2023-05-21T15:43:11.223Z,8.98
2023-05-21T15:45:38.690Z,9.25
2023-05-21T15:48:07.109Z,10.07
2023-05-21T15:50:35.797Z,8.75
2023-05-21T15:53:04.910Z,9.25
2023-05-21T15:55:35.263Z,9.50
2023-05-21T15:58:03.913Z,10.38
2023-05-21T16:00:30.886Z,9.45
2023-05-21T16:02:58.485Z,12.50
2023-05-21T16:05:26.514Z,8.68
2023-05-21T16:07:53.568Z,9.93
2023-05-21T16:10:22.760Z,9.20
2023-05-21T16:12:49.837Z,9.40
2023-05-21T16:15:16.930Z,9.02
2023-05-21T16:17:43.969Z,8.85
2023-05-21T16:20:11.815Z,9.00
2023-05-21T16:22:38.933Z,8.55
2023-05-21T16:25:07.136Z,8.73
2023-05-21T16:27:35.555Z,8.15
2023-05-21T16:30:03.287Z,9.13
2023-05-21T16:32:30.431Z,8.95
2023-05-21T16:34:57.463Z,8.55
2023-05-21T16:37:26.793Z,8.43
2023-05-21T16:39:53.774Z,8.40
2023-05-21T16:42:20.806Z,8.32
2023-05-21T16:44:47.791Z,9.27
2023-05-21T16:47:15.207Z,8.45
2023-05-21T16:49:42.194Z,8.25
2023-05-21T16:52:09.426Z,8.60
2023-05-21T16:54:36.415Z,8.80
2023-05-21T16:57:03.381Z,10.35
2023-05-21T16:59:30.440Z,8.95
2023-05-21T17:01:57.472Z,8.73
2023-05-21T17:04:24.435Z,8.80
2023-05-21T17:06:51.388Z,9.63
2023-05-21T17:09:19.455Z,10.05
2023-05-21T17:11:46.462Z,11.18
2023-05-21T17:14:17.517Z,9.38
2023-05-21T17:16:50.706Z,9.95
2023-05-21T17:19:17.743Z,8.82
2023-05-21T17:21:44.885Z,8.68
2023-05-21T17:24:11.879Z,8.88
2023-05-21T17:26:38.886Z,8.98
2023-05-21T17:29:05.816Z,9.60
2023-05-21T17:31:32.898Z,9.00
2023-05-21T17:34:00.799Z,8.57
2023-05-21T17:36:27.984Z,8.43
2023-05-21T17:38:55.463Z,8.48
2023-05-21T17:41:22.610Z,8.73
2023-05-21T17:43:49.629Z,8.60
2023-05-21T17:46:18.209Z,8.55
2023-05-21T17:48:45.868Z,9.52
2023-05-21T17:51:13.198Z,8.73
2023-05-21T17:53:41.231Z,8.88
2023-05-21T17:56:10.490Z,10.25
2023-05-21T17:58:37.613Z,8.52
2023-05-21T18:01:04.867Z,7.97
2023-05-21T18:03:32.137Z,8.85
2023-05-21T18:05:59.326Z,9.15
2023-05-21T18:08:26.964Z,8.80
2023-05-21T18:10:54.012Z,9.07
2023-05-21T18:13:21.048Z,9.35
2023-05-21T18:15:48.170Z,8.40
2023-05-21T18:18:20.613Z,8.73
2023-05-21T18:20:47.998Z,9.20
2023-05-21T18:23:14.963Z,8.88
2023-05-21T18:25:41.956Z,9.40
2023-05-21T18:28:10.180Z,8.85
2023-05-21T18:30:37.392Z,9.05
2023-05-21T18:33:04.686Z,9.00
2023-05-21T18:35:31.843Z,9.20
2023-05-21T18:37:58.763Z,9.30
2023-05-21T18:40:30.482Z,9.13
2023-05-21T18:42:57.862Z,9.27
2023-05-21T18:45:24.884Z,12.40
2023-05-21T18:47:52.212Z,8.57
2023-05-21T18:50:19.673Z,9.35
2023-05-21T18:52:46.891Z,10.85
2023-05-21T18:55:14.413Z,9.60
2023-05-21T18:57:41.471Z,8.45
2023-05-21T19:00:11.585Z,8.85
2023-05-21T19:02:43.572Z,9.35
2023-05-21T19:05:12.404Z,9.65
2023-05-21T19:07:41.231Z,8.85
2023-05-21T19:10:09.141Z,8.23
2023-05-21T19:12:36.355Z,9.07
2023-05-21T19:15:05.532Z,7.50
2023-05-21T19:17:34.767Z,6.32
2023-05-21T19:20:07.885Z,6.40
2023-05-21T19:22:37.190Z,8.32
2023-05-21T19:25:04.693Z,5.55
2023-05-21T19:27:32.017Z,6.70
2023-05-21T19:29:59.141Z,7.07
2023-05-21T19:32:26.234Z,5.82
2023-05-21T19:34:53.417Z,6.18
2023-05-21T19:37:20.570Z,7.72
2023-05-21T19:39:49.999Z,6.88
2023-05-21T19:42:19.776Z,6.18
2023-05-21T19:44:46.821Z,13.50
2023-05-21T19:47:14.258Z,7.75
2023-05-21T19:49:41.387Z,8.60
2023-05-21T19:52:08.712Z,8.73
2023-05-21T19:54:35.700Z,9.30
2023-05-21T19:57:02.703Z,8.20
2023-05-21T19:59:29.664Z,6.63
2023-05-21T20:01:56.751Z,6.82
2023-05-21T20:04:23.856Z,7.20
2023-05-21T20:06:51.510Z,6.28
2023-05-21T20:09:18.640Z,5.95
2023-05-21T20:11:45.648Z,5.53
2023-05-21T20:14:13.436Z,6.50
2023-05-21T20:16:42.423Z,6.57
2023-05-21T20:19:10.645Z,6.63
2023-05-21T20:21:37.730Z,6.68
2023-05-21T20:24:05.324Z,5.90
2023-05-21T20:26:34.853Z,7.25
2023-05-21T20:29:02.026Z,6.55
2023-05-21T20:31:29.218Z,4.85
2023-05-21T20:33:56.468Z,7.38
2023-05-21T20:36:23.799Z,7.55
2023-05-21T20:38:50.936Z,6.22
2023-05-21T20:41:18.045Z,6.88
2023-05-21T20:43:45.790Z,5.82
2023-05-21T20:46:12.959Z,7.30
2023-05-21T20:48:39.940Z,6.00
2023-05-21T20:51:06.997Z,5.75
2023-05-21T20:53:34.156Z,6.38
2023-05-21T20:56:01.546Z,7.00
2023-05-21T20:58:28.786Z,8.73
2023-05-21T21:00:55.770Z,6.53
2023-05-21T21:03:23.124Z,6.72
2023-05-21T21:05:50.674Z,6.35
2023-05-21T21:08:17.594Z,10.15
2023-05-21T21:10:46.965Z,7.80
2023-05-21T21:13:14.711Z,7.50
2023-05-21T21:15:43.774Z,8.15
2023-05-21T21:18:12.481Z,7.22
2023-05-21T21:20:41.327Z,8.35
2023-05-21T21:23:09.153Z,8.68
2023-05-21T21:25:36.531Z,9.05
2023-05-21T21:28:03.754Z,10.35
2023-05-21T21:30:31.102Z,10.15
2023-05-21T21:32:58.333Z,8.63
2023-05-21T21:35:25.430Z,9.75
2023-05-21T21:37:52.536Z,9.98
2023-05-21T21:40:19.658Z,8.63
2023-05-21T21:42:46.736Z,10.60
2023-05-21T21:45:13.639Z,10.23
2023-05-21T21:47:41.197Z,7.40
2023-05-21T21:50:08.919Z,11.05
2023-05-21T21:52:39.923Z,9.70
2023-05-21T21:55:10.437Z,8.32
2023-05-21T21:57:39.322Z,12.70
2023-05-21T22:00:15.656Z,9.55
2023-05-21T22:02:44.067Z,11.48
2023-05-21T22:05:14.580Z,9.77
2023-05-21T22:07:46.478Z,10.10
2023-05-21T22:10:17.713Z,11.40
2023-05-21T22:12:46.117Z,10.23
2023-05-21T22:15:28.499Z,13.68
2023-05-21T22:17:55.877Z,9.27
2023-05-21T22:20:23.328Z,8.80
2023-05-21T22:22:51.332Z,11.52
2023-05-21T22:25:19.084Z,9.73
2023-05-21T22:27:46.179Z,10.98
2023-05-21T22:30:13.379Z,11.23
2023-05-21T22:32:40.713Z,12.75
2023-05-21T22:35:08.576Z,9.95
2023-05-21T22:37:37.340Z,10.88
2023-05-21T22:40:09.171Z,10.88
2023-05-21T22:42:36.482Z,11.85
2023-05-21T22:45:04.607Z,10.73
2023-05-21T22:47:32.341Z,11.38
2023-05-21T22:50:00.868Z,11.60
2023-05-21T22:52:28.755Z,12.05
2023-05-21T22:54:58.022Z,11.60
2023-05-21T22:57:25.054Z,12.43
2023-05-21T22:59:51.918Z,11.50
2023-05-21T23:02:19.265Z,12.43
2023-05-21T23:04:46.402Z,15.48
2023-05-21T23:07:13.686Z,15.20
2023-05-21T23:09:41.056Z,13.43
2023-05-21T23:12:10.048Z,11.95
2023-05-21T23:14:36.992Z,12.23
2023-05-21T23:17:04.543Z,11.40
2023-05-21T23:19:32.919Z,12.40
2023-05-21T23:22:00.569Z,13.23
2023-05-21T23:24:29.677Z,11.68
2023-05-21T23:27:01.871Z,14.13
2023-05-21T23:29:30.388Z,12.85
2023-05-21T23:31:57.793Z,16.48
2023-05-21T23:34:24.865Z,11.68
2023-05-21T23:36:52.325Z,14.70
2023-05-21T23:39:19.357Z,12.52
2023-05-21T23:41:46.835Z,13.85
2023-05-21T23:44:15.390Z,12.05
2023-05-21T23:46:45.670Z,13.85
2023-05-21T23:49:12.693Z,15.32
2023-05-21T23:51:40.057Z,16.58
2023-05-21T23:54:08.086Z,17.02
2023-05-21T23:56:35.231Z,16.02
2023-05-21T23:59:02.188Z,15.32
